Terminal Aerodrome Forecast
Issued by NWS

Current Version | Previous Version | Graphics & Text | Print | Product List | Glossary On
Versions: 1 2 3 4 5 6 7 8 9 10 11 12 13 14 15 16 17 18 19 20 21 22 23 24 25 26
000
FTUS41 KPBZ 250500 RRA
TAFHLG
TAF
KHLG 250541Z 2506/2606 24008KT 5SM BR OVC015
     FM250800 26007KT P6SM -SHSN OVC015
     FM251400 VRB03KT 2SM -SN OVC007
     FM251800 03005KT 3/4SM -SN OVC004=

USA.gov is the U.S. government's official web portal to all federal, state and local government web resources and services.